Renovo, Pennsylvania
Current Conditions -  °F | °C
As of 5:55 PM on Thursday 27 Nov 2014 (Local Time) from KN38 Reporting Station
Overcast Overcast  
Wind Chill: 23°   Ceiling: 6500
Heat Index: 30°   Visibility: 10mi
Dew Point: 19°   Wind: 7mph
Humidity: 64%   Direction: 330°NNW
Pressure: 30.01"   Gusts: NA
Location:  41.33°N, 77.75°W
Report Text: KN38 272255Z AUTO 33006KT 10SM OVC065 M01/M07 A3001 RMK AO2
Loading
Personal Weather Stations






























Interactive Weather Map New forecast layout! Learn more

10-Day Weather Forecast

Advertisements
Track Severe Weather on mobile